Latest Weather Observations for North Head

IDN60901

Issued at 12:11 pm EDT Thursday 22 February 2024 (issued every 10 minutes, with the page automatically refreshed every 10 minutes)

About weather observations | Map of Sydney area stations | Latest observations for Sydney area | Other Formats
Station Details ID: 066197 Name: NORTH HEAD Lat: -33.82 Lon: 151.30 Height: 90.0 m
Data from the previous 72 hours. | See also: Recent months at North Head
Date/Time
EDT
Temp
°C
App
Temp
°C
Dew
Point
°C
Rel
Hum
%
Delta-T
°C
Wind Press
QNH
hPa
Press
MSL
hPa
Rain since
9am
mm
Dir  Spd
km/h
Gust
km/h
Spd
kts
Gust
kts
22/12:00pm - - - - - ESE 9 13 5 7 - - -
22/11:30am - - - - - E 4 9 2 5 - - -
22/11:00am - - - - - CALM 0 2 0 1 - - -
22/10:30am - - - - - CALM 0 0 0 0 - - -
22/10:00am - - - - - WNW 2 6 1 3 - - -
22/09:30am - - - - - W 4 9 2 5 - - -
22/09:00am - - - - - WSW 6 7 3 4 - - -
22/08:30am - - - - - W 6 9 3 5 - - -
22/08:00am - - - - - W 7 9 4 5 - - -
22/07:30am - - - - - W 6 7 3 4 - - -
22/07:00am - - - - - W 4 6 2 3 - - -
22/06:30am - - - - - W 4 6 2 3 - - -
22/06:00am - - - - - WSW 4 4 2 2 - - -
22/05:30am - - - - - SW 6 7 3 4 - - -
22/05:00am - - - - - SW 6 7 3 4 - - -
22/04:30am - - - - - SW 6 9 3 5 - - -
22/04:00am - - - - - SW 7 11 4 6 - - -
22/03:30am - - - - - WSW 9 13 5 7 - - -
22/03:00am - - - - - SW 6 7 3 4 - - -
22/02:30am - - - - - SW 6 7 3 4 - - -
22/02:00am - - - - - SSW 4 7 2 4 - - -
22/01:30am - - - - - SW 6 9 3 5 - - -
22/01:00am - - - - - SSW 4 7 2 4 - - -
22/12:30am - - - - - SW 7 9 4 5 - - -
22/12:00am - - - - - SW 7 9 4 5 - - -
 
Date/Time
EDT
Temp
°C
App
Temp
°C
Dew
Point
°C
Rel
Hum
%
Delta-T
°C
Wind Press
QNH
hPa
Press
MSL
hPa
Rain since
9am
mm
Dir  Spd
km/h
Gust
km/h
Spd
kts
Gust
kts
21/11:30pm - - - - - SW 7 9 4 5 - - -
21/11:00pm - - - - - SW 7 7 4 4 - - -
21/10:30pm - - - - - SW 7 9 4 5 - - -
21/10:00pm - - - - - SW 6 7 3 4 - - -
21/09:30pm - - - - - SSW 7 9 4 5 - - -
21/09:00pm - - - - - S 6 7 3 4 - - -
21/08:30pm - - - - - SSE 7 11 4 6 - - -
21/08:00pm - - - - - S 9 13 5 7 - - -
21/07:30pm - - - - - SSE 11 15 6 8 - - -
21/07:00pm - - - - - SSE 9 11 5 6 - - -
21/06:30pm - - - - - SSE 7 11 4 6 - - -
21/06:00pm - - - - - S 11 13 6 7 - - -
21/05:30pm - - - - - S 9 13 5 7 - - -
21/05:00pm - - - - - S 11 15 6 8 - - -
21/04:30pm - - - - - SSE 13 17 7 9 - - -
21/04:00pm - - - - - SSE 17 20 9 11 - - -
21/03:30pm - - - - - SSE 15 19 8 10 - - -
21/03:00pm - - - - - SSE 17 24 9 13 - - -
21/02:30pm - - - - - S 15 22 8 12 - - -
21/02:00pm - - - - - S 19 24 10 13 - - -
21/01:30pm - - - - - S 19 28 10 15 - - -
21/01:00pm - - - - - S 19 26 10 14 - - -
21/12:30pm - - - - - S 17 22 9 12 - - -
21/12:00pm - - - - - S 15 22 8 12 - - -
21/11:30am - - - - - S 15 20 8 11 - - -
21/11:00am - - - - - S 13 20 7 11 - - -
21/10:30am - - - - - S 9 15 5 8 - - -
21/10:00am - - - - - S 9 15 5 8 - - -
21/09:30am - - - - - WSW 7 11 4 6 - - -
21/09:00am - - - - - WSW 9 13 5 7 - - -
21/08:30am - - - - - WSW 7 11 4 6 - - -
21/08:00am - - - - - SW 7 11 4 6 - - -
21/07:30am - - - - - SSW 7 9 4 5 - - -
21/07:00am - - - - - SW 9 13 5 7 - - -
21/06:30am - - - - - WSW 9 13 5 7 - - -
21/06:00am - - - - - SW 11 13 6 7 - - -
21/05:30am - - - - - SW 7 11 4 6 - - -
21/05:00am - - - - - SW 9 13 5 7 - - -
21/04:30am - - - - - SW 6 9 3 5 - - -
21/04:00am - - - - - SSW 7 11 4 6 - - -
21/03:30am - - - - - SSW 6 9 3 5 - - -
21/03:00am - - - - - SSW 6 7 3 4 - - -
21/02:30am - - - - - SW 9 13 5 7 - - -
21/02:00am - - - - - WSW 4 6 2 3 - - -
21/01:30am - - - - - WSW 4 7 2 4 - - -
21/01:00am - - - - - N 4 6 2 3 - - -
21/12:30am - - - - - NE 4 9 2 5 - - -
21/12:00am - - - - - ESE 20 33 11 18 - - -
 
Date/Time
EDT
Temp
°C
App
Temp
°C
Dew
Point
°C
Rel
Hum
%
Delta-T
°C
Wind Press
QNH
hPa
Press
MSL
hPa
Rain since
9am
mm
Dir  Spd
km/h
Gust
km/h
Spd
kts
Gust
kts
20/11:30pm - - - - - S 13 19 7 10 - - -
20/11:00pm - - - - - S 13 17 7 9 - - -
20/10:30pm - - - - - SSE 13 19 7 10 - - -
20/10:00pm - - - - - S 11 15 6 8 - - -
20/09:30pm - - - - - SSE 13 19 7 10 - - -
20/09:00pm - - - - - SSE 15 20 8 11 - - -
20/08:30pm - - - - - SSE 13 17 7 9 - - -
20/08:00pm - - - - - S 13 19 7 10 - - -
20/07:30pm - - - - - S 11 17 6 9 - - -
20/07:00pm - - - - - S 9 13 5 7 - - -
20/06:30pm - - - - - S 6 9 3 5 - - -
20/06:00pm - - - - - S 9 17 5 9 - - -
20/05:30pm - - - - - S 13 20 7 11 - - -
20/05:00pm - - - - - SSW 9 13 5 7 - - -
20/04:30pm - - - - - SW 9 13 5 7 - - -
20/04:00pm - - - - - WSW 11 19 6 10 - - -
20/03:30pm - - - - - SW 15 20 8 11 - - -
20/03:00pm - - - - - WSW 13 20 7 11 - - -
20/02:30pm - - - - - W 11 15 6 8 - - -
20/02:00pm - - - - - WSW 13 17 7 9 - - -
20/01:30pm - - - - - WSW 9 11 5 6 - - -
20/01:00pm - - - - - NW 7 9 4 5 - - -
20/12:30pm - - - - - W 7 11 4 6 - - -
20/12:00pm - - - - - NNW 7 11 4 6 - - -
20/11:30am - - - - - N 15 24 8 13 - - -
20/11:00am - - - - - S 15 20 8 11 - - -
20/10:30am - - - - - SSE 22 28 12 15 - - -
20/10:00am - - - - - SSE 19 26 10 14 - - -
20/09:30am - - - - - S 15 24 8 13 - - -
20/09:00am - - - - - S 15 20 8 11 - - -
20/08:30am - - - - - S 17 22 9 12 - - -
20/08:00am - - - - - SSE 22 30 12 16 - - -
20/07:30am - - - - - SSE 26 37 14 20 - - -
20/07:00am - - - - - SSE 28 37 15 20 - - -
20/06:30am - - - - - SSE 26 35 14 19 - - -
20/06:00am - - - - - SSE 28 41 15 22 - - -
20/05:30am - - - - - SSE 28 41 15 22 - - -
20/05:00am - - - - - SSE 22 30 12 16 - - -
20/04:30am - - - - - S 28 41 15 22 - - -
20/04:00am - - - - - S 24 35 13 19 - - -
20/03:30am - - - - - S 22 35 12 19 - - -
20/03:00am - - - - - S 13 17 7 9 - - -
20/02:30am - - - - - S 19 26 10 14 - - -
20/02:00am - - - - - S 13 20 7 11 - - -
20/01:30am - - - - - S 19 28 10 15 - - -
20/01:00am - - - - - SSW 11 20 6 11 - - -
20/12:30am - - - - - WSW 9 15 5 8 - - -
20/12:00am - - - - - SW 6 11 3 6 - - -
 
Date/Time
EDT
Temp
°C
App
Temp
°C
Dew
Point
°C
Rel
Hum
%
Delta-T
°C
Wind Press
QNH
hPa
Press
MSL
hPa
Rain since
9am
mm
Dir  Spd
km/h
Gust
km/h
Spd
kts
Gust
kts
19/11:30pm - - - - - S 13 19 7 10 - - -
19/11:00pm - - - - - S 15 19 8 10 - - -
19/10:30pm - - - - - SSW 6 11 3 6 - - -
19/10:00pm - - - - - SSW 7 9 4 5 - - -
19/09:30pm - - - - - SSW 7 9 4 5 - - -
19/09:00pm - - - - - SSW 9 11 5 6 - - -
19/08:30pm - - - - - SSW 9 11 5 6 - - -
19/08:00pm - - - - - SW 9 13 5 7 - - -
19/07:30pm - - - - - SW 7 11 4 6 - - -
19/07:00pm - - - - - S 11 17 6 9 - - -
19/06:30pm - - - - - SSW 11 19 6 10 - - -
19/06:00pm - - - - - SW 7 11 4 6 - - -
19/05:30pm - - - - - NW 2 6 1 3 - - -
19/05:00pm - - - - - NNW 4 6 2 3 - - -
19/04:30pm - - - - - W 6 9 3 5 - - -
19/04:00pm - - - - - WSW 9 13 5 7 - - -
19/03:30pm - - - - - NNW 7 15 4 8 - - -
19/03:00pm - - - - - N 7 13 4 7 - - -
19/02:30pm - - - - - N 24 37 13 20 - - -
19/02:07pm - - - - - NNE 28 48 15 26 - - -
19/02:00pm - - - - - NNE 28 44 15 24 - - -
19/01:44pm - - - - - NE 24 41 13 22 - - -
19/01:30pm - - - - - NE 11 22 6 12 - - -
19/01:00pm - - - - - E 9 20 5 11 - - -
19/12:30pm - - - - - SSE 20 33 11 18 - - -

Latest Capital City Observations: Canberra | Sydney | Melbourne | Brisbane | Adelaide | Perth | Hobart | Darwin

Other formats

Comma delimited format used in spreadsheet applications
http://www.bom.gov.au/fwo/IDN60901/IDN60901.95768.axf

JavaScript Object Notation format (JSON) in row-major order
http://www.bom.gov.au/fwo/IDN60901/IDN60901.95768.json

Data quality

Most of these data are generated automatically and are frequently updated. Quality checks on data are not normally performed. It is possible for incorrect values to appear. Refer to information at About Latest Weather Observations and please check the disclaimer before using these data.